Monday, February 19, 2018, 10:03 AM GMT
Back to Local

CWRN, Hart Island Meteorological Aeronautical Presentation System

Location: , , Canada Lat: 45.35
Local Time: 10:03 AM GMT (10:03 GMT) Lon: -60.983
Time Zone: GMT Elev: 13 ft

Show me the last for .
Show Coded

Time T Td Feel RH Dir Speed Gust Alt SLP Vis Weather Sky Remarks
2018-02-19 09:00 26 22 16 83 330° 12 - - 30.50 0 Peak wind: 23 mph (20 kts) from 340° at 19 min
2018-02-19 08:00 27 23 14 86 320° 17 - - 30.47 0 Peak wind: 26 mph (23 kts) from 340° at 25 min
2018-02-19 07:00 27 26 15 94 320° 17 - - 30.46 0 Peak wind: 21 mph (19 kts) from 320° at 52 min
Pressure rising rapidly
2018-02-19 06:00 28 25 15 88 340° 16 - - 30.40 0 Peak wind: 23 mph (20 kts) from 310° at 18 min
2018-02-19 05:00 28 25 17 90 310° 14 - - 30.39 0 None
2018-02-19 04:00 27 24 15 89 310° 16 - - 30.35 0 Peak wind: 21 mph (19 kts) from 310° at 20 min
2018-02-19 03:00 27 23 14 84 320° 18 - - 30.32 0 Peak wind: 23 mph (20 kts) from 310° at 31 min
2018-02-19 02:00 26 22 13 84 320° 17 - - 30.27 0 Peak wind: 21 mph (19 kts) from 320° at 57 min
2018-02-19 01:00 28 21 16 75 330° 14 - - 30.22 0 Peak wind: 20 mph (18 kts) from 340° at 17 min
2018-02-19 00:00 26 22 12 85 350° 17 - - 30.18 0 Peak wind: 21 mph (19 kts) from 350° at 02 min
2018-02-18 23:00 26 22 14 82 350° 17 - - 30.14 0 Peak wind: 25 mph (22 kts) from 0° at 22 min
2018-02-18 22:00 27 23 14 83 360° 20 - - 30.09 0 Peak wind: 23 mph (20 kts) from 20° at 00 min
2018-02-18 21:00 28 24 14 86 10° 20 - - 30.04 0 Peak wind: 26 mph (23 kts) from 40° at 12 min
2018-02-18 20:00 27 26 14 93 40° 20 - - 30.01 0 Peak wind: 27 mph (24 kts) from 40° at 33 min
2018-02-18 19:00 27 26 12 96 50° 17 24 - 30.00 0 Peak wind: 26 mph (23 kts) from 60° at 48 min
2018-02-18 18:00 27 26 12 97 70° 17 23 - 30.02 0 Peak wind: 25 mph (22 kts) from 60° at 34 min
2018-02-18 17:00 27 26 12 97 70° 16 23 - 30.03 0 Peak wind: 24 mph (21 kts) from 70° at 45 min
2018-02-18 16:00 26 25 12 95 80° 15 22 - 30.06 0 Peak wind: 21 mph (19 kts) from 80° at 58 min
2018-02-18 15:00 28 25 15 89 110° 18 - - 30.09 0 Peak wind: 25 mph (22 kts) from 110° at 07 min
2018-02-18 14:00 29 25 15 84 120° 21 - - 30.12 0 Peak wind: 25 mph (22 kts) from 130° at 21 min
2018-02-18 13:00 28 25 16 87 130° 17 - - 30.18 0 Peak wind: 25 mph (22 kts) from 130° at 26 min
2018-02-18 12:00 27 23 14 86 140° 17 - - 30.20 0 Peak wind: 26 mph (23 kts) from 130° at 25 min
2018-02-18 11:00 25 22 12 86 140° 17 - - 30.22 0 Peak wind: 23 mph (20 kts) from 130° at 40 min

Support USWX by starting your Amazon purchase here.